sensor_id;sensor_type;location;lat;lon;timestamp;pressure;altitude;pressure_sealevel;temperature;humidity
64200;BME280;50516;52.272;5.136;2022-11-15T00:01:42;100828.13;;;8.11;86.94
64200;BME280;50516;52.272;5.136;2022-11-15T00:04:09;100826.47;;;8.10;86.65
64200;BME280;50516;52.272;5.136;2022-11-15T00:06:35;100825.56;;;8.04;87.13
64200;BME280;50516;52.272;5.136;2022-11-15T00:09:00;100823.94;;;8.03;87.31
64200;BME280;50516;52.272;5.136;2022-11-15T00:11:26;100819.06;;;8.10;87.16
64200;BME280;50516;52.272;5.136;2022-11-15T00:13:54;100824.75;;;8.03;87.00
64200;BME280;50516;52.272;5.136;2022-11-15T00:16:20;100819.72;;;7.95;87.55
64200;BME280;50516;52.272;5.136;2022-11-15T00:18:45;100806.38;;;7.99;87.85
64200;BME280;50516;52.272;5.136;2022-11-15T00:21:13;100804.84;;;7.86;88.67
64200;BME280;50516;52.272;5.136;2022-11-15T00:23:39;100806.81;;;7.91;88.31
64200;BME280;50516;52.272;5.136;2022-11-15T00:26:04;100804.28;;;7.84;88.76
64200;BME280;50516;52.272;5.136;2022-11-15T00:28:30;100805.25;;;7.95;89.02
64200;BME280;50516;52.272;5.136;2022-11-15T00:31:06;100809.94;;;7.99;88.91
64200;BME280;50516;52.272;5.136;2022-11-15T00:33:33;100815.22;;;8.06;89.01
64200;BME280;50516;52.272;5.136;2022-11-15T00:36:06;100810.91;;;8.15;88.73
64200;BME280;50516;52.272;5.136;2022-11-15T00:38:37;100812.22;;;8.08;88.79
64200;BME280;50516;52.272;5.136;2022-11-15T00:41:05;100804.28;;;8.06;89.43
64200;BME280;50516;52.272;5.136;2022-11-15T00:43:31;100816.34;;;8.10;89.47
64200;BME280;50516;52.272;5.136;2022-11-15T00:45:57;100809.75;;;8.06;90.07
64200;BME280;50516;52.272;5.136;2022-11-15T00:48:23;100794.97;;;8.07;89.81
64200;BME280;50516;52.272;5.136;2022-11-15T00:50:49;100791.94;;;8.03;90.03
64200;BME280;50516;52.272;5.136;2022-11-15T00:53:14;100783.94;;;7.97;90.85
64200;BME280;50516;52.272;5.136;2022-11-15T00:55:40;100780.13;;;7.98;90.63
64200;BME280;50516;52.272;5.136;2022-11-15T00:58:05;100788.78;;;7.90;91.10
64200;BME280;50516;52.272;5.136;2022-11-15T01:00:30;100776.13;;;7.83;92.24
64200;BME280;50516;52.272;5.136;2022-11-15T01:02:55;100784.44;;;7.94;92.19
64200;BME280;50516;52.272;5.136;2022-11-15T01:05:22;100766.50;;;8.03;91.57
64200;BME280;50516;52.272;5.136;2022-11-15T01:07:51;100777.75;;;8.07;91.42
64200;BME280;50516;52.272;5.136;2022-11-15T01:10:16;100771.97;;;8.03;91.38
64200;BME280;50516;52.272;5.136;2022-11-15T01:12:42;100773.00;;;7.97;91.82
64200;BME280;50516;52.272;5.136;2022-11-15T01:15:07;100766.06;;;7.89;92.16
64200;BME280;50516;52.272;5.136;2022-11-15T01:17:33;100770.31;;;8.02;92.33
64200;BME280;50516;52.272;5.136;2022-11-15T01:19:58;100772.78;;;8.03;92.08
64200;BME280;50516;52.272;5.136;2022-11-15T01:22:23;100770.38;;;8.07;92.31
64200;BME280;50516;52.272;5.136;2022-11-15T01:24:49;100766.03;;;8.11;92.28
64200;BME280;50516;52.272;5.136;2022-11-15T01:27:15;100759.50;;;8.12;92.32
64200;BME280;50516;52.272;5.136;2022-11-15T01:29:40;100764.34;;;8.05;92.42
64200;BME280;50516;52.272;5.136;2022-11-15T01:32:05;100767.59;;;8.02;93.14
64200;BME280;50516;52.272;5.136;2022-11-15T01:34:31;100758.06;;;8.04;92.96
64200;BME280;50516;52.272;5.136;2022-11-15T01:36:56;100760.38;;;8.18;92.92
64200;BME280;50516;52.272;5.136;2022-11-15T01:39:22;100756.19;;;8.10;92.99
64200;BME280;50516;52.272;5.136;2022-11-15T01:41:47;100755.00;;;8.01;93.47
64200;BME280;50516;52.272;5.136;2022-11-15T01:44:40;100754.53;;;8.09;93.60
64200;BME280;50516;52.272;5.136;2022-11-15T01:49:48;100746.91;;;8.11;94.03
64200;BME280;50516;52.272;5.136;2022-11-15T01:52:17;100742.25;;;8.12;93.45
64200;BME280;50516;52.272;5.136;2022-11-15T01:54:44;100739.25;;;8.13;94.22
64200;BME280;50516;52.272;5.136;2022-11-15T01:57:11;100732.50;;;8.21;93.94
64200;BME280;50516;52.272;5.136;2022-11-15T01:59:40;100736.56;;;8.18;94.34
64200;BME280;50516;52.272;5.136;2022-11-15T02:02:07;100731.44;;;8.22;93.84
64200;BME280;50516;52.272;5.136;2022-11-15T02:04:37;100727.59;;;8.23;94.84
64200;BME280;50516;52.272;5.136;2022-11-15T02:07:05;100734.72;;;8.24;94.91
64200;BME280;50516;52.272;5.136;2022-11-15T02:09:32;100729.03;;;8.31;95.04
64200;BME280;50516;52.272;5.136;2022-11-15T02:11:59;100724.72;;;8.35;94.61
64200;BME280;50516;52.272;5.136;2022-11-15T02:14:26;100719.22;;;8.35;94.84
64200;BME280;50516;52.272;5.136;2022-11-15T02:17:02;100714.31;;;8.37;95.02
64200;BME280;50516;52.272;5.136;2022-11-15T02:28:26;100691.53;;;8.58;95.54
64200;BME280;50516;52.272;5.136;2022-11-15T02:31:04;100685.47;;;8.51;95.32
64200;BME280;50516;52.272;5.136;2022-11-15T02:36:43;100677.50;;;8.50;96.63
64200;BME280;50516;52.272;5.136;2022-11-15T02:41:51;100672.72;;;8.67;96.09
64200;BME280;50516;52.272;5.136;2022-11-15T02:44:26;100668.56;;;8.65;96.47
64200;BME280;50516;52.272;5.136;2022-11-15T02:46:58;100671.88;;;8.67;96.53
64200;BME280;50516;52.272;5.136;2022-11-15T02:49:47;100664.78;;;8.71;97.21
64200;BME280;50516;52.272;5.136;2022-11-15T02:52:21;100657.75;;;8.80;97.09
64200;BME280;50516;52.272;5.136;2022-11-15T02:55:00;100662.09;;;8.81;96.67
64200;BME280;50516;52.272;5.136;2022-11-15T02:57:52;100646.22;;;8.83;96.62
64200;BME280;50516;52.272;5.136;2022-11-15T03:00:22;100651.50;;;8.95;96.53
64200;BME280;50516;52.272;5.136;2022-11-15T03:11:17;100647.66;;;8.96;98.18
64200;BME280;50516;52.272;5.136;2022-11-15T03:14:02;100648.25;;;8.98;97.92
64200;BME280;50516;52.272;5.136;2022-11-15T03:19:37;100650.47;;;9.06;97.63
64200;BME280;50516;52.272;5.136;2022-11-15T03:22:07;100655.94;;;9.06;98.16
64200;BME280;50516;52.272;5.136;2022-11-15T03:24:37;100658.16;;;9.14;98.14
64200;BME280;50516;52.272;5.136;2022-11-15T03:27:05;100654.03;;;9.12;98.40
64200;BME280;50516;52.272;5.136;2022-11-15T03:29:34;100648.81;;;9.10;98.61
64200;BME280;50516;52.272;5.136;2022-11-15T03:32:09;100648.81;;;9.05;98.78
64200;BME280;50516;52.272;5.136;2022-11-15T03:35:05;100650.78;;;9.15;98.96
64200;BME280;50516;52.272;5.136;2022-11-15T03:40:23;100643.72;;;9.29;98.90
64200;BME280;50516;52.272;5.136;2022-11-15T03:43:00;100652.75;;;9.30;98.55
64200;BME280;50516;52.272;5.136;2022-11-15T03:45:35;100643.72;;;9.35;98.96
64200;BME280;50516;52.272;5.136;2022-11-15T03:48:14;100654.13;;;9.32;98.91
64200;BME280;50516;52.272;5.136;2022-11-15T03:50:42;100649.16;;;9.24;99.72
64200;BME280;50516;52.272;5.136;2022-11-15T03:53:09;100648.38;;;9.34;99.58
64200;BME280;50516;52.272;5.136;2022-11-15T03:55:35;100647.84;;;9.37;100.00
64200;BME280;50516;52.272;5.136;2022-11-15T03:58:01;100652.25;;;9.43;100.00
64200;BME280;50516;52.272;5.136;2022-11-15T04:00:27;100642.66;;;9.46;100.00
64200;BME280;50516;52.272;5.136;2022-11-15T04:02:53;100654.19;;;9.48;100.00
64200;BME280;50516;52.272;5.136;2022-11-15T04:05:18;100643.78;;;9.55;99.99
64200;BME280;50516;52.272;5.136;2022-11-15T04:07:43;100636.13;;;9.62;99.84
64200;BME280;50516;52.272;5.136;2022-11-15T04:10:10;100638.31;;;9.65;99.77
64200;BME280;50516;52.272;5.136;2022-11-15T04:12:41;100632.81;;;9.50;100.00
64200;BME280;50516;52.272;5.136;2022-11-15T04:15:16;100632.81;;;9.55;100.00
64200;BME280;50516;52.272;5.136;2022-11-15T04:17:47;100633.66;;;9.61;100.00
64200;BME280;50516;52.272;5.136;2022-11-15T04:20:17;100633.69;;;9.66;100.00
64200;BME280;50516;52.272;5.136;2022-11-15T04:23:06;100641.09;;;9.71;100.00
64200;BME280;50516;52.272;5.136;2022-11-15T04:25:52;100636.69;;;9.75;100.00
64200;BME280;50516;52.272;5.136;2022-11-15T04:28:18;100631.22;;;9.75;100.00
64200;BME280;50516;52.272;5.136;2022-11-15T04:30:44;100634.50;;;9.72;100.00
64200;BME280;50516;52.272;5.136;2022-11-15T04:33:09;100622.97;;;9.69;100.00
64200;BME280;50516;52.272;5.136;2022-11-15T04:35:35;100629.56;;;9.68;100.00
64200;BME280;50516;52.272;5.136;2022-11-15T04:38:02;100627.94;;;9.78;100.00
64200;BME280;50516;52.272;5.136;2022-11-15T04:40:28;100613.41;;;9.77;100.00
64200;BME280;50516;52.272;5.136;2022-11-15T04:42:53;100622.44;;;9.83;100.00
64200;BME280;50516;52.272;5.136;2022-11-15T04:45:18;100622.16;;;9.84;100.00
64200;BME280;50516;52.272;5.136;2022-11-15T04:47:44;100620.81;;;9.82;100.00
64200;BME280;50516;52.272;5.136;2022-11-15T04:50:11;100622.16;;;9.79;100.00
64200;BME280;50516;52.272;5.136;2022-11-15T04:52:42;100621.34;;;9.84;100.00
64200;BME280;50516;52.272;5.136;2022-11-15T04:55:11;100616.97;;;9.83;100.00
64200;BME280;50516;52.272;5.136;2022-11-15T04:57:37;100620.81;;;9.87;100.00
64200;BME280;50516;52.272;5.136;2022-11-15T05:00:04;100617.81;;;9.89;100.00
64200;BME280;50516;52.272;5.136;2022-11-15T05:02:30;100623.00;;;9.90;100.00
64200;BME280;50516;52.272;5.136;2022-11-15T05:05:16;100627.38;;;9.91;100.00
64200;BME280;50516;52.272;5.136;2022-11-15T05:07:41;100632.31;;;9.89;100.00
64200;BME280;50516;52.272;5.136;2022-11-15T05:10:07;100629.31;;;9.91;100.00
64200;BME280;50516;52.272;5.136;2022-11-15T05:12:32;100630.66;;;9.88;100.00
64200;BME280;50516;52.272;5.136;2022-11-15T05:14:57;100635.06;;;9.84;100.00
64200;BME280;50516;52.272;5.136;2022-11-15T05:17:23;100640.56;;;9.84;100.00
64200;BME280;50516;52.272;5.136;2022-11-15T05:19:48;100647.13;;;9.88;100.00
64200;BME280;50516;52.272;5.136;2022-11-15T05:22:13;100644.66;;;9.86;100.00
64200;BME280;50516;52.272;5.136;2022-11-15T05:24:39;100646.31;;;9.98;100.00
64200;BME280;50516;52.272;5.136;2022-11-15T05:27:04;100648.25;;;9.97;100.00
64200;BME280;50516;52.272;5.136;2022-11-15T05:29:29;100646.59;;;10.01;100.00
64200;BME280;50516;52.272;5.136;2022-11-15T05:31:54;100658.38;;;10.07;100.00
64200;BME280;50516;52.272;5.136;2022-11-15T05:34:20;100656.75;;;10.06;100.00
64200;BME280;50516;52.272;5.136;2022-11-15T05:36:48;100647.97;;;10.09;100.00
64200;BME280;50516;52.272;5.136;2022-11-15T05:39:13;100642.22;;;10.16;100.00
64200;BME280;50516;52.272;5.136;2022-11-15T05:41:53;100642.22;;;10.16;100.00
64200;BME280;50516;52.272;5.136;2022-11-15T05:44:23;100646.88;;;10.15;100.00
64200;BME280;50516;52.272;5.136;2022-11-15T05:46:51;100653.19;;;10.21;100.00
64200;BME280;50516;52.272;5.136;2022-11-15T05:49:20;100649.88;;;10.19;100.00
64200;BME280;50516;52.272;5.136;2022-11-15T05:51:48;100649.06;;;10.18;100.00
64200;BME280;50516;52.272;5.136;2022-11-15T05:54:15;100643.88;;;10.27;100.00
64200;BME280;50516;52.272;5.136;2022-11-15T05:56:41;100646.31;;;10.23;100.00
64200;BME280;50516;52.272;5.136;2022-11-15T05:59:08;100652.06;;;10.22;100.00
64200;BME280;50516;52.272;5.136;2022-11-15T06:01:34;100649.06;;;10.18;100.00
64200;BME280;50516;52.272;5.136;2022-11-15T06:04:00;100643.88;;;10.27;100.00
64200;BME280;50516;52.272;5.136;2022-11-15T06:06:27;100657.84;;;10.31;100.00
64200;BME280;50516;52.272;5.136;2022-11-15T06:08:52;100654.31;;;10.35;100.00
64200;BME280;50516;52.272;5.136;2022-11-15T06:11:18;100654.84;;;10.37;100.00
64200;BME280;50516;52.272;5.136;2022-11-15T06:13:43;100657.06;;;10.35;100.00
64200;BME280;50516;52.272;5.136;2022-11-15T06:16:08;100660.63;;;10.36;100.00
64200;BME280;50516;52.272;5.136;2022-11-15T06:18:34;100666.91;;;10.41;100.00
64200;BME280;50516;52.272;5.136;2022-11-15T06:21:01;100670.22;;;10.44;100.00
64200;BME280;50516;52.272;5.136;2022-11-15T06:23:27;100673.78;;;10.49;100.00
64200;BME280;50516;52.272;5.136;2022-11-15T06:25:52;100674.06;;;10.53;100.00
64200;BME280;50516;52.272;5.136;2022-11-15T06:28:18;100664.75;;;10.44;100.00
64200;BME280;50516;52.272;5.136;2022-11-15T06:30:43;100671.31;;;10.43;100.00
64200;BME280;50516;52.272;5.136;2022-11-15T06:33:08;100671.31;;;10.48;100.00
64200;BME280;50516;52.272;5.136;2022-11-15T06:35:35;100663.91;;;10.48;100.00
64200;BME280;50516;52.272;5.136;2022-11-15T06:38:03;100674.31;;;10.46;100.00
64200;BME280;50516;52.272;5.136;2022-11-15T06:40:29;100683.41;;;10.47;100.00
64200;BME280;50516;52.272;5.136;2022-11-15T06:43:01;100686.69;;;10.49;100.00
64200;BME280;50516;52.272;5.136;2022-11-15T06:45:27;100684.22;;;10.52;100.00
64200;BME280;50516;52.272;5.136;2022-11-15T06:47:52;100688.88;;;10.52;100.00
64200;BME280;50516;52.272;5.136;2022-11-15T06:50:18;100691.63;;;10.52;100.00
64200;BME280;50516;52.272;5.136;2022-11-15T06:52:43;100695.19;;;10.47;100.00
64200;BME280;50516;52.272;5.136;2022-11-15T06:55:09;100693.28;;;10.48;100.00
64200;BME280;50516;52.272;5.136;2022-11-15T06:57:35;100688.31;;;10.45;100.00
64200;BME280;50516;52.272;5.136;2022-11-15T07:00:03;100694.38;;;10.47;100.00
64200;BME280;50516;52.272;5.136;2022-11-15T07:02:28;100690.81;;;10.51;100.00
64200;BME280;50516;52.272;5.136;2022-11-15T07:04:54;100683.38;;;10.57;100.00
64200;BME280;50516;52.272;5.136;2022-11-15T07:07:19;100685.59;;;10.60;100.00
64200;BME280;50516;52.272;5.136;2022-11-15T07:09:44;100697.13;;;10.52;100.00
64200;BME280;50516;52.272;5.136;2022-11-15T07:12:10;100692.44;;;10.52;100.00
64200;BME280;50516;52.272;5.136;2022-11-15T07:14:35;100698.47;;;10.54;100.00
64200;BME280;50516;52.272;5.136;2022-11-15T07:17:03;100702.59;;;10.57;100.00
64200;BME280;50516;52.272;5.136;2022-11-15T07:19:29;100694.38;;;10.52;100.00
64200;BME280;50516;52.272;5.136;2022-11-15T07:21:55;100704.25;;;10.58;100.00
64200;BME280;50516;52.272;5.136;2022-11-15T07:24:20;100696.03;;;10.53;100.00
64200;BME280;50516;52.272;5.136;2022-11-15T07:26:45;100705.91;;;10.44;100.00
64200;BME280;50516;52.272;5.136;2022-11-15T07:29:11;100707.56;;;10.50;100.00
64200;BME280;50516;52.272;5.136;2022-11-15T07:31:36;100704.78;;;10.45;100.00
64200;BME280;50516;52.272;5.136;2022-11-15T07:34:02;100703.44;;;10.47;100.00
64200;BME280;50516;52.272;5.136;2022-11-15T07:36:27;100710.84;;;10.36;100.00
64200;BME280;50516;52.272;5.136;2022-11-15T07:38:53;100703.19;;;10.38;100.00
64200;BME280;50516;52.272;5.136;2022-11-15T07:41:18;100703.72;;;10.46;100.00
64200;BME280;50516;52.272;5.136;2022-11-15T07:43:43;100700.41;;;10.54;100.00
64200;BME280;50516;52.272;5.136;2022-11-15T07:46:09;100695.72;;;10.54;100.00
64200;BME280;50516;52.272;5.136;2022-11-15T07:48:35;100702.63;;;10.52;100.00
64200;BME280;50516;52.272;5.136;2022-11-15T07:51:01;100692.72;;;10.51;100.00
64200;BME280;50516;52.272;5.136;2022-11-15T07:53:26;100690.53;;;10.63;100.00
64200;BME280;50516;52.272;5.136;2022-11-15T07:55:52;100701.50;;;10.68;100.00
64200;BME280;50516;52.272;5.136;2022-11-15T07:58:19;100703.16;;;10.69;100.00
64200;BME280;50516;52.272;5.136;2022-11-15T08:00:44;100705.34;;;10.72;100.00
64200;BME280;50516;52.272;5.136;2022-11-15T08:03:15;100692.16;;;10.74;100.00
64200;BME280;50516;52.272;5.136;2022-11-15T08:05:41;100688.59;;;10.79;99.84
64200;BME280;50516;52.272;5.136;2022-11-15T08:08:08;100687.47;;;10.80;99.27
64200;BME280;50516;52.272;5.136;2022-11-15T08:10:34;100688.31;;;10.81;99.46
64200;BME280;50516;52.272;5.136;2022-11-15T08:13:09;100684.72;;;10.80;99.15
64200;BME280;50516;52.272;5.136;2022-11-15T08:15:35;100690.75;;;10.77;99.24
64200;BME280;50516;52.272;5.136;2022-11-15T08:18:03;100689.94;;;10.87;99.04
64200;BME280;50516;52.272;5.136;2022-11-15T08:20:29;100684.44;;;10.87;98.63
64200;BME280;50516;52.272;5.136;2022-11-15T08:22:56;100687.75;;;10.84;98.84
64200;BME280;50516;52.272;5.136;2022-11-15T08:25:22;100675.91;;;10.99;98.54
64200;BME280;50516;52.272;5.136;2022-11-15T08:27:51;100682.75;;;10.96;98.10
64200;BME280;50516;52.272;5.136;2022-11-15T08:30:17;100675.34;;;10.91;98.56
64200;BME280;50516;52.272;5.136;2022-11-15T08:32:42;100671.25;;;10.94;98.29
64200;BME280;50516;52.272;5.136;2022-11-15T08:35:08;100664.66;;;10.90;98.40
64200;BME280;50516;52.272;5.136;2022-11-15T08:37:34;100658.63;;;10.88;98.76
64200;BME280;50516;52.272;5.136;2022-11-15T08:39:59;100664.09;;;10.98;98.32
64200;BME280;50516;52.272;5.136;2022-11-15T08:42:24;100657.75;;;10.98;97.67
64200;BME280;50516;52.272;5.136;2022-11-15T08:44:49;100652.25;;;11.08;98.09
64200;BME280;50516;52.272;5.136;2022-11-15T08:47:15;100652.19;;;11.18;97.02
64200;BME280;50516;52.272;5.136;2022-11-15T08:49:40;100653.53;;;11.26;97.20
64200;BME280;50516;52.272;5.136;2022-11-15T08:52:05;100653.19;;;11.43;96.53
64200;BME280;50516;52.272;5.136;2022-11-15T08:54:31;100650.41;;;11.48;95.81
64200;BME280;50516;52.272;5.136;2022-11-15T08:56:56;100645.75;;;11.48;95.06
64200;BME280;50516;52.272;5.136;2022-11-15T08:59:22;100649.91;;;11.41;95.17
64200;BME280;50516;52.272;5.136;2022-11-15T09:01:47;100652.63;;;11.46;95.47
64200;BME280;50516;52.272;5.136;2022-11-15T09:04:12;100651.56;;;11.37;95.77
64200;BME280;50516;52.272;5.136;2022-11-15T09:06:38;100647.13;;;11.46;95.63
64200;BME280;50516;52.272;5.136;2022-11-15T09:09:03;100645.75;;;11.48;95.05
64200;BME280;50516;52.272;5.136;2022-11-15T09:11:28;100638.63;;;11.42;95.36
64200;BME280;50516;52.272;5.136;2022-11-15T09:13:54;100646.88;;;11.42;95.18
64200;BME280;50516;52.272;5.136;2022-11-15T09:16:19;100645.09;;;11.62;94.39
64200;BME280;50516;52.272;5.136;2022-11-15T09:18:45;100657.13;;;11.76;93.71
64200;BME280;50516;52.272;5.136;2022-11-15T09:21:10;100650.53;;;11.72;93.48
64200;BME280;50516;52.272;5.136;2022-11-15T09:23:36;100651.38;;;11.73;93.56
64200;BME280;50516;52.272;5.136;2022-11-15T09:26:03;100653.75;;;11.84;92.69
64200;BME280;50516;52.272;5.136;2022-11-15T09:28:29;100636.94;;;11.91;92.53
64200;BME280;50516;52.272;5.136;2022-11-15T09:31:03;100636.31;;;12.04;92.04
64200;BME280;50516;52.272;5.136;2022-11-15T09:33:29;100631.25;;;12.17;91.53
64200;BME280;50516;52.272;5.136;2022-11-15T09:36:08;100641.06;;;12.28;90.03
64200;BME280;50516;52.272;5.136;2022-11-15T09:38:34;100634.75;;;12.28;90.25
64200;BME280;50516;52.272;5.136;2022-11-15T09:46:49;100620.16;;;12.56;88.85
64200;BME280;50516;52.272;5.136;2022-11-15T09:49:21;100620.06;;;12.67;88.50
64200;BME280;50516;52.272;5.136;2022-11-15T09:51:49;100622.75;;;12.72;87.87
64200;BME280;50516;52.272;5.136;2022-11-15T09:56:47;100622.38;;;12.54;87.07
64200;BME280;50516;52.272;5.136;2022-11-15T09:59:19;100633.50;;;12.44;87.15
64200;BME280;50516;52.272;5.136;2022-11-15T10:02:15;100634.25;;;12.20;87.97
64200;BME280;50516;52.272;5.136;2022-11-15T10:04:44;100617.50;;;12.17;88.32
64200;BME280;50516;52.272;5.136;2022-11-15T10:13:00;100625.69;;;11.93;88.67
64200;BME280;50516;52.272;5.136;2022-11-15T10:15:26;100622.53;;;12.04;88.50
64200;BME280;50516;52.272;5.136;2022-11-15T10:20:40;100607.50;;;11.97;87.70
64200;BME280;50516;52.272;5.136;2022-11-15T10:23:11;100614.91;;;11.96;86.68
64200;BME280;50516;52.272;5.136;2022-11-15T10:25:38;100600.56;;;11.99;86.43
64200;BME280;50516;52.272;5.136;2022-11-15T10:30:39;100602.28;;;11.95;86.58
64200;BME280;50516;52.272;5.136;2022-11-15T10:35:36;100592.88;;;12.01;85.84
64200;BME280;50516;52.272;5.136;2022-11-15T10:38:09;100579.66;;;12.03;86.05
64200;BME280;50516;52.272;5.136;2022-11-15T10:40:36;100565.66;;;11.95;85.43
64200;BME280;50516;52.272;5.136;2022-11-15T10:43:13;100569.41;;;12.09;85.81
64200;BME280;50516;52.272;5.136;2022-11-15T10:45:39;100556.72;;;12.13;85.50
64200;BME280;50516;52.272;5.136;2022-11-15T10:50:36;100546.72;;;12.22;83.96
64200;BME280;50516;52.272;5.136;2022-11-15T10:53:01;100556.75;;;12.37;84.09
64200;BME280;50516;52.272;5.136;2022-11-15T10:55:30;100550.94;;;12.39;83.25
64200;BME280;50516;52.272;5.136;2022-11-15T10:58:06;100543.56;;;12.34;83.38
64200;BME280;50516;52.272;5.136;2022-11-15T11:00:45;100544.00;;;12.47;82.77
64200;BME280;50516;52.272;5.136;2022-11-15T11:03:30;100543.56;;;12.34;82.87
64200;BME280;50516;52.272;5.136;2022-11-15T11:06:18;100545.16;;;12.40;83.00
64200;BME280;50516;52.272;5.136;2022-11-15T11:09:29;100544.97;;;12.32;82.82
64200;BME280;50516;52.272;5.136;2022-11-15T11:11:56;100531.84;;;12.23;83.05
64200;BME280;50516;52.272;5.136;2022-11-15T11:14:27;100531.09;;;12.42;81.84
64200;BME280;50516;52.272;5.136;2022-11-15T11:20:07;100531.41;;;12.65;81.02
64200;BME280;50516;52.272;5.136;2022-11-15T11:22:55;100520.88;;;12.67;81.50
64200;BME280;50516;52.272;5.136;2022-11-15T11:28:41;100515.50;;;12.56;80.93
64200;BME280;50516;52.272;5.136;2022-11-15T11:34:15;100525.00;;;12.21;81.42
64200;BME280;50516;52.272;5.136;2022-11-15T11:37:10;100517.59;;;12.16;81.56
64200;BME280;50516;52.272;5.136;2022-11-15T11:40:14;100520.16;;;12.08;81.11
64200;BME280;50516;52.272;5.136;2022-11-15T11:45:20;100515.38;;;12.18;81.36
64200;BME280;50516;52.272;5.136;2022-11-15T11:50:37;100498.00;;;12.23;80.56
64200;BME280;50516;52.272;5.136;2022-11-15T11:53:09;100494.88;;;12.30;80.78
64200;BME280;50516;52.272;5.136;2022-11-15T11:58:16;100471.56;;;12.46;80.02
64200;BME280;50516;52.272;5.136;2022-11-15T12:00:51;100472.56;;;12.55;79.21
64200;BME280;50516;52.272;5.136;2022-11-15T12:03:29;100457.63;;;12.62;78.64
64200;BME280;50516;52.272;5.136;2022-11-15T12:06:02;100445.03;;;12.55;78.18
64200;BME280;50516;52.272;5.136;2022-11-15T12:08:44;100450.66;;;12.45;78.39
64200;BME280;50516;52.272;5.136;2022-11-15T12:11:24;100444.50;;;12.53;78.66
64200;BME280;50516;52.272;5.136;2022-11-15T12:14:00;100446.59;;;12.62;78.16
64200;BME280;50516;52.272;5.136;2022-11-15T12:16:28;100426.31;;;12.52;77.97
64200;BME280;50516;52.272;5.136;2022-11-15T12:18:58;100428.63;;;12.45;77.52
64200;BME280;50516;52.272;5.136;2022-11-15T12:24:28;100430.47;;;12.50;77.16
64200;BME280;50516;52.272;5.136;2022-11-15T12:29:33;100415.75;;;12.59;77.00
64200;BME280;50516;52.272;5.136;2022-11-15T12:32:00;100408.13;;;12.56;77.05
64200;BME280;50516;52.272;5.136;2022-11-15T12:34:30;100409.81;;;12.52;76.21
64200;BME280;50516;52.272;5.136;2022-11-15T12:37:00;100410.09;;;12.51;76.25
64200;BME280;50516;52.272;5.136;2022-11-15T12:40:15;100408.69;;;12.53;75.82
64200;BME280;50516;52.272;5.136;2022-11-15T12:43:01;100404.06;;;12.49;74.81
64200;BME280;50516;52.272;5.136;2022-11-15T12:45:33;100394.56;;;12.60;74.70
64200;BME280;50516;52.272;5.136;2022-11-15T12:58:51;100372.00;;;12.77;74.51
64200;BME280;50516;52.272;5.136;2022-11-15T13:06:50;100360.38;;;12.80;73.77
64200;BME280;50516;52.272;5.136;2022-11-15T13:14:58;100352.41;;;12.97;72.21
64200;BME280;50516;52.272;5.136;2022-11-15T13:18:23;100338.22;;;13.04;72.30
64200;BME280;50516;52.272;5.136;2022-11-15T13:30:50;100322.34;;;13.15;70.93
64200;BME280;50516;52.272;5.136;2022-11-15T13:33:21;100324.66;;;13.08;70.65
64200;BME280;50516;52.272;5.136;2022-11-15T13:35:51;100320.88;;;13.04;71.65
64200;BME280;50516;52.272;5.136;2022-11-15T13:38:37;100319.25;;;12.84;70.92
64200;BME280;50516;52.272;5.136;2022-11-15T13:41:19;100313.81;;;12.97;71.00
64200;BME280;50516;52.272;5.136;2022-11-15T13:43:46;100312.69;;;12.99;71.14
64200;BME280;50516;52.272;5.136;2022-11-15T13:46:22;100314.22;;;13.05;71.17
64200;BME280;50516;52.272;5.136;2022-11-15T13:48:53;100301.41;;;12.81;71.57
64200;BME280;50516;52.272;5.136;2022-11-15T13:54:08;100288.94;;;12.70;72.02
64200;BME280;50516;52.272;5.136;2022-11-15T13:56:35;100289.34;;;12.77;71.93
64200;BME280;50516;52.272;5.136;2022-11-15T13:59:09;100294.44;;;12.70;72.33
64200;BME280;50516;52.272;5.136;2022-11-15T14:01:35;100289.66;;;12.75;71.99
64200;BME280;50516;52.272;5.136;2022-11-15T14:04:02;100281.38;;;12.75;72.41
64200;BME280;50516;52.272;5.136;2022-11-15T14:06:29;100276.16;;;12.74;71.97
64200;BME280;50516;52.272;5.136;2022-11-15T14:11:37;100270.97;;;12.72;72.10
64200;BME280;50516;52.272;5.136;2022-11-15T14:14:12;100270.34;;;12.62;72.42
64200;BME280;50516;52.272;5.136;2022-11-15T14:16:45;100262.50;;;12.50;72.56
64200;BME280;50516;52.272;5.136;2022-11-15T14:19:32;100268.25;;;12.53;72.43
64200;BME280;50516;52.272;5.136;2022-11-15T14:22:18;100255.00;;;12.55;72.77
64200;BME280;50516;52.272;5.136;2022-11-15T14:27:31;100250.78;;;12.44;72.53
64200;BME280;50516;52.272;5.136;2022-11-15T14:29:57;100250.00;;;12.57;72.81
64200;BME280;50516;52.272;5.136;2022-11-15T14:32:23;100245.69;;;12.51;72.58
64200;BME280;50516;52.272;5.136;2022-11-15T14:35:00;100241.47;;;12.40;72.83
64200;BME280;50516;52.272;5.136;2022-11-15T14:37:28;100232.59;;;12.43;73.62
64200;BME280;50516;52.272;5.136;2022-11-15T14:39:54;100226.72;;;12.50;72.92
64200;BME280;50516;52.272;5.136;2022-11-15T14:42:21;100223.25;;;12.44;72.90
64200;BME280;50516;52.272;5.136;2022-11-15T14:44:47;100218.34;;;12.41;73.68
64200;BME280;50516;52.272;5.136;2022-11-15T14:47:13;100220.88;;;12.37;73.41
64200;BME280;50516;52.272;5.136;2022-11-15T14:49:39;100209.34;;;12.35;73.49
64200;BME280;50516;52.272;5.136;2022-11-15T14:52:23;100202.50;;;12.33;73.28
64200;BME280;50516;52.272;5.136;2022-11-15T14:54:48;100205.75;;;12.35;73.23
64200;BME280;50516;52.272;5.136;2022-11-15T14:57:13;100193.72;;;12.31;73.15
64200;BME280;50516;52.272;5.136;2022-11-15T14:59:39;100193.44;;;12.32;73.44
64200;BME280;50516;52.272;5.136;2022-11-15T15:04:41;100194.25;;;12.33;73.50